Time;durP1;ratioP1;P1;durP2;ratioP2;P2;SDS_P1;SDS_P2;PMS_P1;PMS_P2;Temp;Humidity;BMP_temperature;BMP_pressure;BME280_temperature;BME280_humidity;BME280_pressure;Samples;Min_cycle;Max_cycle;Signal;HPM_P1;HPM_P2
2022/07/21 00:01:35;;;;;;;6.93;4.07;;;12.40;99.90;;;;;;5008054;28;20041;-53
2022/07/21 00:04:03;;;;;;;8.73;4.55;;;12.50;99.90;;;;;;5019394;28;20025;-55
2022/07/21 00:06:30;;;;;;;6.35;3.58;;;12.60;99.90;;;;;;5012246;28;20030;-54
2022/07/21 00:08:57;;;;;;;9.40;4.10;;;12.70;99.90;;;;;;5010888;28;20109;-53
2022/07/21 00:11:24;;;;;;;9.98;4.05;;;12.80;99.50;;;;;;5012477;28;20061;-54
2022/07/21 00:13:52;;;;;;;9.15;3.90;;;12.80;99.30;;;;;;5011030;28;20036;-55
2022/07/21 00:16:19;;;;;;;7.60;3.97;;;12.80;99.00;;;;;;5011200;28;20111;-54
2022/07/21 00:18:46;;;;;;;6.03;3.67;;;12.80;99.20;;;;;;5012154;28;20076;-56
2022/07/21 00:21:14;;;;;;;6.28;3.13;;;12.90;98.70;;;;;;5017015;28;20045;-56
2022/07/21 00:23:41;;;;;;;5.88;3.80;;;12.90;98.00;;;;;;5007142;28;20026;-55
2022/07/21 00:26:08;;;;;;;11.05;3.80;;;12.90;99.00;;;;;;5011049;28;20157;-55
2022/07/21 00:28:35;;;;;;;6.35;3.35;;;13.00;99.10;;;;;;5012765;28;20030;-55
2022/07/21 00:31:03;;;;;;;7.60;3.92;;;13.10;98.50;;;;;;5012530;28;20030;-54
2022/07/21 00:33:30;;;;;;;8.52;3.42;;;13.10;98.40;;;;;;5012716;28;20014;-51
2022/07/21 00:35:57;;;;;;;7.60;3.22;;;13.10;98.00;;;;;;5011452;28;20026;-52
2022/07/21 00:38:25;;;;;;;6.50;2.80;;;13.20;98.70;;;;;;5010084;28;20076;-50
2022/07/21 00:40:53;;;;;;;6.13;2.80;;;13.20;98.00;;;;;;5007515;28;20030;-50
2022/07/21 00:43:20;;;;;;;4.75;2.22;;;13.20;97.30;;;;;;5012044;28;20050;-54
2022/07/21 00:45:48;;;;;;;6.32;1.95;;;13.20;97.70;;;;;;5012497;28;20034;-52
2022/07/21 00:48:15;;;;;;;4.72;1.83;;;13.20;97.20;;;;;;5013660;28;20258;-55
2022/07/21 00:50:43;;;;;;;4.00;2.42;;;13.20;97.60;;;;;;5020879;28;20033;-52
2022/07/21 00:53:10;;;;;;;6.55;2.25;;;13.20;97.30;;;;;;5012534;28;20029;-52
2022/07/21 00:55:37;;;;;;;6.85;2.45;;;13.20;98.00;;;;;;5009514;28;20064;-53
2022/07/21 00:58:05;;;;;;;7.25;2.33;;;13.30;97.90;;;;;;5008436;28;20136;-52
2022/07/21 01:00:32;;;;;;;5.47;2.38;;;13.30;97.60;;;;;;5008366;28;20041;-55
2022/07/21 01:03:00;;;;;;;3.45;2.10;;;13.40;97.50;;;;;;5007410;28;20742;-52
2022/07/21 01:05:27;;;;;;;5.75;1.95;;;13.40;97.50;;;;;;5007769;28;20029;-50
2022/07/21 01:08:02;;;;;;;8.60;1.90;;;13.30;97.40;;;;;;5009654;28;20022;-53
2022/07/21 01:10:29;;;;;;;;;;;13.30;97.30;;;;;;5009241;28;20113;-53
2022/07/21 01:12:56;;;;;;;10.40;2.65;;;13.50;97.50;;;;;;5006935;28;19917;-51
2022/07/21 01:15:24;;;;;;;5.65;2.88;;;13.60;97.80;;;;;;5005528;28;20025;-54
2022/07/21 01:17:52;;;;;;;7.15;3.08;;;13.70;98.30;;;;;;5011275;28;20362;-57
2022/07/21 01:20:22;;;;;;;8.02;2.70;;;13.90;98.40;;;;;;5008650;28;20573;-50
2022/07/21 01:22:52;;;;;;;9.23;2.35;;;14.00;98.70;;;;;;5004534;28;20038;-53
2022/07/21 01:25:20;;;;;;;6.10;2.30;;;14.10;98.00;;;;;;5008461;28;20076;-54
2022/07/21 01:27:48;;;;;;;6.97;2.40;;;14.10;97.60;;;;;;5006625;28;20028;-53
2022/07/21 01:30:15;;;;;;;6.32;2.42;;;14.00;97.20;;;;;;5007439;28;20029;-52
2022/07/21 01:32:43;;;;;;;8.02;2.35;;;14.00;97.10;;;;;;5007800;28;20116;-52
2022/07/21 01:35:14;;;;;;;7.55;2.00;;;14.00;97.70;;;;;;5008008;28;20032;-56
2022/07/21 01:37:44;;;;;;;3.60;1.42;;;14.10;97.90;;;;;;5008260;28;20403;-54
2022/07/21 01:42:59;;;;;;;6.45;1.90;;;14.20;97.50;;;;;;5007828;28;20040;-50
2022/07/21 01:45:27;;;;;;;8.73;2.88;;;14.20;97.40;;;;;;5007454;28;20045;-54
2022/07/21 01:47:54;;;;;;;9.05;2.33;;;14.20;97.70;;;;;;5008210;28;20046;-52
2022/07/21 01:50:26;;;;;;;8.93;2.80;;;14.30;97.90;;;;;;5008431;28;20040;-54
2022/07/21 01:52:55;;;;;;;11.95;3.65;;;14.30;97.70;;;;;;5007383;28;20038;-51
2022/07/21 01:55:23;;;;;;;11.55;2.92;;;14.50;98.10;;;;;;5007502;28;20033;-51
2022/07/21 01:57:51;;;;;;;9.52;2.55;;;14.60;98.00;;;;;;5007962;28;20037;-51
2022/07/21 02:00:18;;;;;;;7.47;2.40;;;14.70;97.80;;;;;;5008700;28;20022;-51
2022/07/21 02:02:46;;;;;;;7.30;1.95;;;14.90;97.30;;;;;;5008733;28;20244;-51
2022/07/21 02:05:13;;;;;;;5.35;2.08;;;15.10;97.60;;;;;;5006107;28;20029;-48
2022/07/21 02:07:41;;;;;;;8.02;2.13;;;15.30;96.80;;;;;;5008131;28;20089;-49
2022/07/21 02:10:08;;;;;;;5.88;1.88;;;15.40;96.40;;;;;;5007286;28;20022;-48
2022/07/21 02:12:35;;;;;;;6.78;2.47;;;15.40;96.30;;;;;;5005589;28;20109;-48
2022/07/21 02:15:03;;;;;;;7.47;2.55;;;15.20;96.20;;;;;;5001225;28;20514;-52
2022/07/21 02:17:30;;;;;;;6.38;2.95;;;15.10;96.40;;;;;;4992426;28;20029;-53
2022/07/21 02:19:57;;;;;;;8.50;2.30;;;14.90;96.70;;;;;;4997271;28;20030;-53
2022/07/21 02:22:25;;;;;;;6.50;2.90;;;14.80;96.40;;;;;;5004286;28;20351;-55
2022/07/21 02:24:52;;;;;;;4.22;2.13;;;14.60;96.70;;;;;;5006519;28;20494;-53
2022/07/21 02:27:19;;;;;;;8.77;2.50;;;14.60;97.50;;;;;;5004958;28;20117;-52
2022/07/21 02:29:47;;;;;;;3.88;2.20;;;14.50;97.50;;;;;;5004948;28;20025;-50
2022/07/21 02:32:14;;;;;;;7.30;2.85;;;14.60;98.00;;;;;;4987982;28;20026;-60
2022/07/21 02:34:41;;;;;;;5.13;2.03;;;14.50;98.20;;;;;;5004665;28;20494;-59
2022/07/21 02:37:08;;;;;;;6.90;2.22;;;14.50;98.00;;;;;;5004219;28;20286;-59
2022/07/21 02:39:36;;;;;;;10.25;2.35;;;14.50;98.30;;;;;;5006210;28;20246;-49
2022/07/21 02:42:03;;;;;;;5.15;2.92;;;14.50;98.00;;;;;;5000232;28;20580;-49
2022/07/21 02:44:30;;;;;;;8.45;2.75;;;14.60;97.90;;;;;;4999229;28;20466;-57
2022/07/21 02:46:58;;;;;;;12.75;3.53;;;14.70;98.30;;;;;;5007129;28;20156;-55
2022/07/21 02:49:25;;;;;;;7.93;2.45;;;14.90;97.70;;;;;;4999821;28;20038;-59
2022/07/21 02:51:52;;;;;;;5.68;2.55;;;15.00;97.40;;;;;;5000927;28;20124;-55
2022/07/21 02:54:19;;;;;;;6.38;2.35;;;15.10;97.90;;;;;;5005889;28;20033;-52
2022/07/21 02:56:47;;;;;;;4.43;2.25;;;15.20;97.40;;;;;;5003399;28;20499;-59
2022/07/21 02:59:34;;;;;;;5.97;2.05;;;15.30;97.00;;;;;;5009549;28;20108;-52
2022/07/21 03:02:01;;;;;;;7.85;2.05;;;15.60;95.60;;;;;;5006486;28;20038;-54
2022/07/21 03:04:29;;;;;;;4.55;2.42;;;15.80;95.00;;;;;;5002060;28;20433;-51
2022/07/21 03:06:56;;;;;;;10.13;2.78;;;15.80;93.50;;;;;;5000122;28;20030;-53
2022/07/21 03:09:23;;;;;;;6.50;2.30;;;15.80;91.70;;;;;;4996068;28;20049;-53
2022/07/21 03:11:50;;;;;;;4.82;2.83;;;15.80;93.30;;;;;;5004716;28;20037;-52
2022/07/21 03:14:18;;;;;;;5.70;1.38;;;15.80;92.40;;;;;;4998033;28;20163;-54
2022/07/21 03:16:45;;;;;;;4.57;1.83;;;15.60;91.70;;;;;;4998954;28;20022;-52
2022/07/21 03:19:12;;;;;;;2.75;1.60;;;15.60;92.60;;;;;;5002096;28;20034;-53
2022/07/21 03:21:39;;;;;;;5.55;1.27;;;15.50;93.30;;;;;;5008382;28;20532;-55
2022/07/21 03:24:07;;;;;;;4.15;1.13;;;15.40;93.80;;;;;;5005005;28;20030;-54
2022/07/21 03:26:38;;;;;;;4.38;1.13;;;15.40;93.60;;;;;;5005110;28;20029;-54
2022/07/21 03:29:05;;;;;;;5.07;1.92;;;15.40;93.20;;;;;;5004428;28;20026;-53
2022/07/21 03:31:33;;;;;;;5.72;1.92;;;15.40;93.60;;;;;;5005306;28;20026;-53
2022/07/21 03:34:00;;;;;;;6.38;1.15;;;15.40;94.30;;;;;;5006804;28;20384;-56
2022/07/21 03:36:27;;;;;;;4.18;1.38;;;15.50;91.80;;;;;;5008450;28;20545;-55
2022/07/21 03:38:55;;;;;;;4.38;1.55;;;15.50;92.80;;;;;;5010633;28;20125;-55
2022/07/21 03:41:22;;;;;;;3.00;1.20;;;15.60;92.40;;;;;;5015073;28;20038;-52
2022/07/21 03:43:49;;;;;;;6.38;1.00;;;15.70;92.10;;;;;;5005582;28;20022;-57
2022/07/21 03:46:16;;;;;;;2.42;1.02;;;15.70;91.60;;;;;;5003006;28;20034;-51
2022/07/21 03:48:44;;;;;;;4.68;1.00;;;15.80;92.30;;;;;;5004927;28;20034;-51
2022/07/21 03:51:11;;;;;;;4.72;0.70;;;15.80;92.50;;;;;;5007769;28;20022;-57
2022/07/21 03:53:38;;;;;;;3.88;0.98;;;15.70;90.40;;;;;;5015712;28;20033;-52
2022/07/21 03:56:06;;;;;;;3.05;0.80;;;15.70;90.00;;;;;;5008540;28;20022;-55
2022/07/21 03:58:33;;;;;;;3.70;1.00;;;15.70;90.50;;;;;;5004955;28;20026;-55
2022/07/21 04:01:00;;;;;;;4.28;1.08;;;15.60;90.80;;;;;;5008093;28;20398;-52
2022/07/21 04:03:28;;;;;;;10.82;1.02;;;15.40;91.10;;;;;;5006727;28;20018;-55
2022/07/21 04:05:55;;;;;;;5.45;0.65;;;15.20;91.10;;;;;;5007327;28;20033;-64
2022/07/21 04:08:22;;;;;;;7.10;0.82;;;14.80;91.70;;;;;;5015245;28;20471;-56
2022/07/21 04:10:49;;;;;;;4.43;0.70;;;14.50;92.80;;;;;;5008843;28;20037;-51
2022/07/21 04:13:17;;;;;;;2.25;0.57;;;14.40;93.60;;;;;;5022833;28;20474;-55
2022/07/21 04:15:44;;;;;;;4.22;0.68;;;14.30;94.10;;;;;;5005638;28;20029;-55
2022/07/21 04:18:11;;;;;;;2.90;0.60;;;14.10;94.60;;;;;;5008902;28;20018;-58
2022/07/21 04:20:39;;;;;;;5.65;1.48;;;14.00;95.30;;;;;;5004038;28;20713;-57
2022/07/21 04:23:06;;;;;;;6.15;1.13;;;13.90;96.00;;;;;;5008665;28;20117;-55
2022/07/21 04:25:35;;;;;;;5.00;0.88;;;13.80;96.90;;;;;;5015361;28;20025;-54
2022/07/21 04:28:02;;;;;;;2.80;0.50;;;13.70;96.60;;;;;;5009017;28;20025;-57
2022/07/21 04:30:30;;;;;;;6.70;1.13;;;13.60;97.50;;;;;;5005738;28;20025;-53
2022/07/21 04:32:57;;;;;;;6.75;0.80;;;13.60;98.30;;;;;;5015143;28;20030;-56
2022/07/21 04:35:24;;;;;;;8.52;2.13;;;13.60;98.20;;;;;;5009725;28;20546;-54
2022/07/21 04:37:52;;;;;;;3.30;0.63;;;13.50;98.80;;;;;;5016888;28;20025;-55
2022/07/21 04:40:19;;;;;;;1.42;0.50;;;13.40;97.80;;;;;;5014899;28;20371;-57
2022/07/21 04:42:47;;;;;;;3.63;1.10;;;13.20;98.10;;;;;;5015868;28;20022;-57
2022/07/21 04:45:15;;;;;;;8.80;0.80;;;13.10;98.90;;;;;;5015852;28;20036;-57
2022/07/21 04:47:43;;;;;;;6.75;0.75;;;13.00;98.90;;;;;;5011389;28;20495;-59
2022/07/21 04:50:12;;;;;;;3.05;0.95;;;13.00;99.10;;;;;;5011315;28;20022;-56
2022/07/21 04:52:39;;;;;;;7.00;0.70;;;12.90;99.40;;;;;;5008833;28;20036;-51
2022/07/21 04:55:07;;;;;;;3.45;0.90;;;12.90;99.50;;;;;;5020584;28;20026;-53
2022/07/21 04:57:38;;;;;;;6.15;0.90;;;12.90;99.90;;;;;;5013009;28;20360;-51
2022/07/21 05:00:07;;;;;;;5.95;1.05;;;12.90;99.90;;;;;;5018999;28;20494;-54
2022/07/21 05:02:35;;;;;;;2.33;0.63;;;13.00;99.90;;;;;;5005369;28;20549;-57
2022/07/21 05:05:03;;;;;;;3.20;0.80;;;13.00;99.90;;;;;;5010756;28;20018;-58
2022/07/21 05:07:30;;;;;;;2.40;0.45;;;13.00;99.90;;;;;;5014783;28;20479;-60
2022/07/21 05:09:58;;;;;;;3.85;0.73;;;13.10;99.90;;;;;;5019053;28;20809;-57
2022/07/21 05:12:26;;;;;;;1.40;0.57;;;13.10;99.70;;;;;;5005077;28;20014;-60
2022/07/21 05:14:53;;;;;;;3.65;0.85;;;13.10;99.50;;;;;;5002403;28;20021;-57
2022/07/21 05:17:21;;;;;;;3.13;0.60;;;13.10;99.20;;;;;;5025669;28;20022;-56
2022/07/21 05:19:50;;;;;;;10.30;1.42;;;13.10;99.40;;;;;;5010685;28;20037;-52
2022/07/21 05:22:17;;;;;;;3.92;1.20;;;13.20;99.60;;;;;;5019276;28;20079;-57
2022/07/21 05:24:45;;;;;;;3.80;0.82;;;13.20;99.50;;;;;;5021290;28;20022;-55
2022/07/21 05:27:12;;;;;;;5.55;1.27;;;13.10;99.20;;;;;;5013051;28;20438;-54
2022/07/21 05:29:42;;;;;;;9.25;1.45;;;13.10;99.40;;;;;;5013249;28;20065;-50
2022/07/21 05:32:10;;;;;;;5.88;1.92;;;13.20;99.40;;;;;;5020327;28;20120;-58
2022/07/21 05:34:37;;;;;;;6.55;0.80;;;13.20;99.50;;;;;;5037133;28;20030;-57
2022/07/21 05:37:04;;;;;;;2.97;0.88;;;13.20;99.70;;;;;;5011559;28;20053;-57
2022/07/21 05:39:31;;;;;;;6.57;1.80;;;13.20;99.60;;;;;;5013132;28;20079;-51
2022/07/21 05:41:59;;;;;;;9.38;3.35;;;13.20;99.70;;;;;;5009665;28;20494;-52
2022/07/21 05:44:26;;;;;;;4.50;1.70;;;13.20;99.40;;;;;;5010395;28;20030;-56
2022/07/21 05:46:53;;;;;;;13.15;2.08;;;13.30;98.80;;;;;;5010140;28;20053;-54
2022/07/21 05:49:20;;;;;;;5.95;2.72;;;13.30;98.90;;;;;;5021577;28;20025;-54
2022/07/21 05:51:48;;;;;;;5.53;1.45;;;13.20;98.80;;;;;;5025345;28;20037;-53
2022/07/21 05:54:15;;;;;;;8.57;0.93;;;13.20;99.10;;;;;;5007091;28;20391;-55
2022/07/21 05:56:42;;;;;;;8.55;1.13;;;13.20;99.00;;;;;;5007575;28;20471;-49
2022/07/21 05:59:09;;;;;;;5.25;1.05;;;13.20;99.00;;;;;;5019858;28;20083;-50
2022/07/21 06:01:37;;;;;;;3.95;1.20;;;13.20;99.00;;;;;;5016940;28;20548;-51
2022/07/21 06:04:04;;;;;;;8.95;1.50;;;13.20;99.00;;;;;;5006273;28;20065;-54
2022/07/21 06:06:32;;;;;;;3.95;1.35;;;13.20;99.10;;;;;;5005388;28;20046;-53
2022/07/21 06:09:00;;;;;;;7.25;1.27;;;13.20;99.20;;;;;;5007282;28;20110;-55
2022/07/21 06:11:27;;;;;;;10.27;1.95;;;13.30;99.30;;;;;;5022790;28;20026;-51
2022/07/21 06:13:54;;;;;;;9.80;2.45;;;13.20;99.30;;;;;;5007046;28;20030;-52
2022/07/21 06:16:22;;;;;;;7.80;2.00;;;13.30;99.40;;;;;;5005475;28;20033;-55
2022/07/21 06:18:49;;;;;;;6.45;1.30;;;13.20;99.50;;;;;;5005500;28;20025;-55
2022/07/21 06:21:17;;;;;;;8.85;1.67;;;13.30;99.70;;;;;;5008105;28;20136;-52
2022/07/21 06:23:45;;;;;;;10.43;1.20;;;13.30;99.70;;;;;;5012835;28;20482;-54
2022/07/21 06:26:12;;;;;;;10.10;1.60;;;13.30;99.70;;;;;;5020066;28;20470;-55
2022/07/21 06:28:41;;;;;;;5.03;2.13;;;13.20;99.60;;;;;;5011895;28;20558;-48
2022/07/21 06:31:08;;;;;;;10.02;3.05;;;13.20;99.80;;;;;;5011292;28;20394;-52
2022/07/21 06:33:36;;;;;;;12.15;3.30;;;13.20;99.70;;;;;;5007027;28;20045;-52
2022/07/21 06:36:03;;;;;;;12.18;4.80;;;13.20;99.60;;;;;;5008160;28;20072;-53
2022/07/21 06:38:31;;;;;;;15.60;4.68;;;13.10;99.60;;;;;;5007796;28;20071;-52
2022/07/21 06:40:58;;;;;;;9.32;4.10;;;13.10;99.80;;;;;;5007024;28;20041;-55
2022/07/21 06:43:25;;;;;;;9.35;3.72;;;13.10;99.80;;;;;;5011356;28;20021;-51
2022/07/21 06:45:53;;;;;;;12.82;3.50;;;13.10;99.90;;;;;;5011471;28;20033;-58
2022/07/21 06:48:21;;;;;;;14.10;3.70;;;13.10;99.80;;;;;;5006444;28;20045;-54
2022/07/21 06:50:49;;;;;;;17.30;4.65;;;13.00;99.90;;;;;;5011091;28;20164;-52
2022/07/21 06:53:17;;;;;;;13.48;5.43;;;13.00;99.90;;;;;;5013873;28;20553;-54
2022/07/21 06:55:44;;;;;;;8.35;3.15;;;13.00;99.90;;;;;;5008215;28;20391;-60
2022/07/21 06:58:13;;;;;;;9.32;3.20;;;13.10;99.90;;;;;;5007796;28;20091;-52
2022/07/21 07:00:41;;;;;;;10.73;2.70;;;13.00;99.90;;;;;;5006505;28;20057;-53
2022/07/21 07:03:08;;;;;;;10.48;3.45;;;12.90;99.90;;;;;;5005412;28;20025;-57
2022/07/21 07:05:36;;;;;;;9.25;4.25;;;12.90;99.90;;;;;;5007530;28;20029;-52
2022/07/21 07:08:04;;;;;;;10.57;2.88;;;12.80;99.90;;;;;;5007430;28;20109;-59
2022/07/21 07:10:32;;;;;;;11.68;2.30;;;12.80;99.90;;;;;;5011226;28;20034;-55
2022/07/21 07:13:00;;;;;;;9.65;2.10;;;12.80;99.90;;;;;;5015645;28;20032;-53
2022/07/21 07:15:28;;;;;;;13.32;3.28;;;12.70;99.90;;;;;;5006429;28;20022;-51
2022/07/21 07:17:55;;;;;;;7.85;2.75;;;12.70;99.90;;;;;;5008941;28;20160;-52
2022/07/21 07:20:23;;;;;;;11.55;3.13;;;12.60;99.90;;;;;;5004737;28;21461;-59
2022/07/21 07:22:51;;;;;;;9.32;2.80;;;12.60;99.90;;;;;;5000889;28;20030;-55
2022/07/21 07:25:18;;;;;;;12.07;2.78;;;12.50;99.90;;;;;;5006337;28;20152;-56
2022/07/21 07:27:47;;;;;;;7.20;2.70;;;12.50;99.90;;;;;;5009960;28;20276;-55
2022/07/21 07:30:16;;;;;;;12.55;3.22;;;12.50;99.90;;;;;;5008424;28;20113;-55
2022/07/21 07:32:44;;;;;;;13.13;2.97;;;12.50;99.90;;;;;;5013393;28;20044;-56
2022/07/21 07:35:12;;;;;;;15.88;2.83;;;12.50;99.90;;;;;;5015604;28;20033;-56
2022/07/21 07:37:41;;;;;;;9.63;2.70;;;12.50;99.90;;;;;;5014724;28;20026;-58
2022/07/21 07:40:12;;;;;;;13.48;3.65;;;12.50;99.90;;;;;;5011728;28;20038;-54
2022/07/21 07:42:39;;;;;;;10.57;2.42;;;12.50;99.90;;;;;;5011928;28;20025;-55
2022/07/21 07:45:08;;;;;;;15.02;3.22;;;12.50;99.90;;;;;;5013967;28;20116;-56
2022/07/21 07:47:35;;;;;;;8.60;2.15;;;12.50;99.90;;;;;;5013574;28;20034;-55
2022/07/21 07:50:05;;;;;;;11.57;3.25;;;12.50;99.90;;;;;;5015518;28;20482;-50
2022/07/21 07:52:32;;;;;;;10.77;2.08;;;12.50;99.90;;;;;;5006543;28;20030;-55
2022/07/21 07:55:00;;;;;;;9.02;1.90;;;12.50;99.90;;;;;;5009187;28;20028;-56
2022/07/21 07:57:27;;;;;;;9.25;2.25;;;12.40;99.90;;;;;;5006206;28;20022;-56
2022/07/21 07:59:54;;;;;;;10.60;1.67;;;12.40;99.90;;;;;;5010426;28;20086;-54
2022/07/21 08:02:21;;;;;;;10.38;2.30;;;12.40;99.90;;;;;;5009068;28;20029;-55
2022/07/21 08:04:48;;;;;;;10.07;2.35;;;12.40;99.90;;;;;;5006844;28;20015;-53
2022/07/21 08:07:16;;;;;;;14.77;2.80;;;12.40;99.90;;;;;;5010037;28;20030;-54
2022/07/21 08:09:43;;;;;;;11.48;2.55;;;12.40;99.90;;;;;;5010911;28;20025;-56
2022/07/21 08:12:11;;;;;;;5.90;1.88;;;12.40;99.90;;;;;;5009434;28;20021;-56
2022/07/21 08:14:38;;;;;;;11.10;2.60;;;12.40;99.90;;;;;;5009609;28;20050;-54
2022/07/21 08:17:06;;;;;;;11.93;2.75;;;12.40;99.90;;;;;;5007645;28;20503;-54
2022/07/21 08:19:33;;;;;;;7.25;2.25;;;12.40;99.90;;;;;;5009898;28;20556;-51
2022/07/21 08:22:01;;;;;;;12.48;3.90;;;12.40;99.90;;;;;;5002928;28;20045;-51
2022/07/21 08:24:28;;;;;;;13.02;4.32;;;12.30;99.90;;;;;;5010297;28;20564;-64
2022/07/21 08:26:55;;;;;;;12.35;3.63;;;12.40;99.90;;;;;;5010189;28;20027;-51
2022/07/21 08:29:23;;;;;;;15.38;2.83;;;12.40;99.90;;;;;;5011024;28;20026;-57
2022/07/21 08:31:50;;;;;;;11.40;4.60;;;12.30;99.90;;;;;;5012178;28;20053;-52
2022/07/21 08:34:17;;;;;;;13.98;4.35;;;12.30;99.90;;;;;;5012221;28;20014;-56
2022/07/21 08:36:45;;;;;;;10.18;3.58;;;12.30;99.90;;;;;;5010280;28;20057;-54
2022/07/21 08:39:12;;;;;;;11.57;2.58;;;12.20;99.90;;;;;;5004781;28;20023;-59
2022/07/21 08:41:41;;;;;;;10.40;2.40;;;12.20;99.90;;;;;;5008937;28;20431;-59
2022/07/21 08:44:10;;;;;;;10.35;3.42;;;12.20;99.90;;;;;;5010046;28;20053;-59
2022/07/21 08:46:41;;;;;;;7.57;3.67;;;12.10;99.90;;;;;;5010972;28;20509;-57
2022/07/21 08:49:10;;;;;;;8.90;2.42;;;12.10;99.90;;;;;;5011171;28;20049;-57
2022/07/21 08:51:38;;;;;;;14.27;3.90;;;12.10;99.90;;;;;;5011264;28;20030;-60
2022/07/21 08:54:05;;;;;;;13.20;3.45;;;12.20;99.90;;;;;;5011635;28;20026;-57
2022/07/21 08:56:33;;;;;;;15.68;3.15;;;12.20;99.90;;;;;;5012015;28;20029;-58
2022/07/21 08:59:00;;;;;;;15.88;3.03;;;12.20;99.90;;;;;;5006600;28;20049;-57
2022/07/21 09:01:28;;;;;;;14.45;4.75;;;12.30;99.90;;;;;;4994040;28;20396;-60
2022/07/21 09:03:55;;;;;;;14.13;2.75;;;12.30;99.90;;;;;;4994736;28;20022;-59
2022/07/21 09:06:23;;;;;;;10.43;2.28;;;12.30;99.90;;;;;;4995954;28;20033;-59
2022/07/21 09:08:53;;;;;;;15.57;4.95;;;12.30;99.90;;;;;;5006868;28;20029;-59
2022/07/21 09:11:26;;;;;;;15.45;3.97;;;12.30;99.90;;;;;;5008891;28;20404;-60
2022/07/21 09:14:18;;;;;;;12.88;5.00;;;12.30;99.90;;;;;;5008115;28;20056;-59
2022/07/21 09:16:54;;;;;;;14.38;5.40;;;12.20;99.90;;;;;;5006850;28;20084;-60
2022/07/21 09:19:25;;;;;;;13.18;5.20;;;12.10;99.90;;;;;;5008526;28;20034;-59
2022/07/21 09:21:55;;;;;;;28.98;7.57;;;12.10;99.90;;;;;;5007907;28;20038;-59
2022/07/21 09:24:39;;;;;;;18.58;6.10;;;12.00;99.90;;;;;;5008553;28;20025;-60
2022/07/21 09:27:13;;;;;;;16.65;5.38;;;12.00;99.90;;;;;;5008370;28;20079;-59
2022/07/21 09:29:42;;;;;;;23.00;5.72;;;12.00;99.90;;;;;;5008952;28;20029;-57
2022/07/21 09:32:30;;;;;;;30.92;11.73;;;11.90;99.90;;;;;;5008385;28;20045;-54
2022/07/21 09:35:10;;;;;;;20.20;10.63;;;11.90;99.90;;;;;;4998668;28;20030;-56
2022/07/21 09:37:42;;;;;;;29.10;11.18;;;11.90;99.90;;;;;;4996745;28;20483;-56
2022/07/21 09:40:11;;;;;;;26.05;14.93;;;11.90;99.90;;;;;;4998310;28;20080;-60
2022/07/21 09:42:41;;;;;;;22.25;7.78;;;11.90;99.90;;;;;;4998806;28;20553;-56
2022/07/21 09:45:15;;;;;;;15.70;5.95;;;11.80;99.90;;;;;;4998243;28;20040;-55
2022/07/21 09:47:43;;;;;;;14.20;7.10;;;11.80;99.90;;;;;;4996872;28;20109;-57
2022/07/21 09:50:13;;;;;;;14.63;7.80;;;11.80;99.90;;;;;;4999225;28;20113;-56
2022/07/21 09:52:46;;;;;;;14.35;8.35;;;11.70;99.90;;;;;;4998286;28;20457;-57
2022/07/21 09:55:16;;;;;;;13.43;6.78;;;11.80;99.90;;;;;;5006110;28;20025;-57
2022/07/21 09:57:44;;;;;;;19.17;5.85;;;11.80;99.90;;;;;;5006434;28;20406;-56
2022/07/21 10:00:15;;;;;;;9.65;5.07;;;11.80;99.90;;;;;;5006549;28;20507;-55
2022/07/21 10:02:44;;;;;;;16.13;5.30;;;11.70;99.90;;;;;;4998398;28;20573;-56
2022/07/21 10:05:21;;;;;;;18.17;6.25;;;11.70;99.90;;;;;;5007742;28;20026;-57
2022/07/21 10:07:49;;;;;;;19.33;6.25;;;11.60;99.90;;;;;;5007049;28;20084;-59
2022/07/21 10:10:18;;;;;;;16.63;7.03;;;11.60;99.90;;;;;;5005820;28;20034;-59
2022/07/21 10:12:47;;;;;;;24.95;9.52;;;11.70;99.90;;;;;;5007295;28;20076;-61
2022/07/21 10:15:15;;;;;;;17.00;7.40;;;11.70;99.90;;;;;;5006960;28;20050;-57
2022/07/21 10:17:48;;;;;;;20.80;7.18;;;11.80;99.90;;;;;;5008086;28;20452;-57
2022/07/21 10:20:25;;;;;;;18.45;7.47;;;11.80;99.90;;;;;;5007706;28;20026;-60
2022/07/21 10:23:10;;;;;;;16.52;5.90;;;11.80;99.90;;;;;;5005833;28;20108;-61
2022/07/21 10:25:38;;;;;;;12.40;2.50;;;11.90;99.90;;;;;;5006046;28;20387;-57
2022/07/21 10:28:11;;;;;;;12.18;2.70;;;11.90;99.90;;;;;;5007104;28;20108;-60
2022/07/21 10:30:39;;;;;;;9.38;2.00;;;11.90;99.90;;;;;;5007444;28;20514;-59
2022/07/21 10:33:07;;;;;;;14.52;2.58;;;11.80;99.90;;;;;;5007669;28;20034;-53
2022/07/21 10:35:48;;;;;;;15.25;3.00;;;11.90;99.90;;;;;;5007244;28;20026;-53
2022/07/21 10:38:33;;;;;;;5.68;2.33;;;11.80;99.90;;;;;;5005566;28;20021;-57
2022/07/21 10:41:01;;;;;;;;;;;11.80;99.90;;;;;;4999050;28;20034;-56
2022/07/21 10:43:28;;;;;;;15.52;3.17;;;11.80;99.90;;;;;;5007531;28;19905;-62
2022/07/21 10:45:57;;;;;;;10.50;2.42;;;11.80;99.90;;;;;;5006311;28;20041;-55
2022/07/21 10:48:48;;;;;;;10.25;2.72;;;11.70;99.90;;;;;;5007585;28;20049;-55
2022/07/21 10:51:16;;;;;;;6.15;2.05;;;11.70;99.90;;;;;;4996446;28;20023;-56
2022/07/21 10:53:46;;;;;;;7.60;2.20;;;11.60;99.90;;;;;;4995966;28;20038;-56
2022/07/21 10:56:31;;;;;;;25.52;4.32;;;11.60;99.90;;;;;;4996809;28;20406;-55
2022/07/21 10:58:58;;;;;;;11.98;3.33;;;11.50;99.90;;;;;;4996363;28;20014;-61
2022/07/21 11:01:26;;;;;;;11.55;4.30;;;11.40;99.90;;;;;;4995905;28;20157;-56
2022/07/21 11:04:19;;;;;;;15.80;5.60;;;11.40;99.90;;;;;;5004809;28;20030;-57
2022/07/21 11:06:47;;;;;;;17.65;6.72;;;11.30;99.90;;;;;;4987752;28;20034;-58
2022/07/21 11:09:21;;;;;;;20.95;7.57;;;11.30;99.90;;;;;;4988406;28;20369;-56
2022/07/21 11:12:03;;;;;;;20.33;7.77;;;11.30;99.90;;;;;;4998286;28;20459;-53
2022/07/21 11:14:49;;;;;;;18.92;5.75;;;11.30;99.90;;;;;;5007162;28;20597;-57
2022/07/21 11:17:30;;;;;;;17.50;6.43;;;11.20;99.90;;;;;;5017365;28;20180;-59
2022/07/21 11:19:59;;;;;;;20.45;6.50;;;11.20;99.90;;;;;;5003983;28;20053;-56
2022/07/21 11:22:29;;;;;;;20.55;7.28;;;11.20;99.90;;;;;;5007126;28;20121;-56
2022/07/21 11:25:08;;;;;;;18.40;7.55;;;11.20;99.90;;;;;;5007456;28;20026;-55
2022/07/21 11:27:39;;;;;;;19.25;7.05;;;11.20;99.90;;;;;;5000210;28;20735;-55
2022/07/21 11:30:09;;;;;;;22.38;7.25;;;11.20;99.90;;;;;;4999552;28;20034;-56
2022/07/21 11:32:37;;;;;;;19.60;6.97;;;11.10;99.90;;;;;;4995568;28;20026;-55
2022/07/21 11:35:07;;;;;;;15.10;7.55;;;11.10;99.90;;;;;;5002761;28;20026;-58
2022/07/21 11:37:39;;;;;;;19.90;6.43;;;11.00;99.90;;;;;;5002178;28;20030;-56
2022/07/21 11:40:06;;;;;;;16.23;7.90;;;10.90;99.90;;;;;;4981929;28;20407;-57
2022/07/21 11:42:34;;;;;;;16.60;6.40;;;10.90;99.90;;;;;;5009516;28;20030;-55
2022/07/21 11:45:02;;;;;;;16.65;7.30;;;10.80;99.90;;;;;;5013913;28;20021;-57
2022/07/21 11:47:29;;;;;;;15.25;6.45;;;10.70;99.90;;;;;;4997784;28;20120;-55
2022/07/21 11:49:58;;;;;;;16.90;5.40;;;10.70;99.90;;;;;;5001678;28;20033;-56
2022/07/21 11:52:29;;;;;;;15.23;5.45;;;10.80;99.90;;;;;;5003726;28;20010;-56
2022/07/21 11:54:58;;;;;;;22.65;6.25;;;10.60;99.90;;;;;;5001753;28;20069;-57
2022/07/21 11:57:27;;;;;;;16.48;4.93;;;10.60;99.90;;;;;;5005379;28;20109;-56
2022/07/21 11:59:55;;;;;;;13.90;4.88;;;10.50;99.90;;;;;;5012999;28;20030;-57
2022/07/21 12:02:32;;;;;;;15.50;5.22;;;10.40;99.90;;;;;;5021033;28;20044;-56
2022/07/21 12:05:08;;;;;;;17.70;3.75;;;10.40;99.90;;;;;;5007356;28;20110;-60
2022/07/21 12:07:39;;;;;;;13.77;3.40;;;10.50;99.90;;;;;;5011713;28;20394;-57
2022/07/21 12:10:29;;;;;;;11.82;2.72;;;10.80;99.90;;;;;;5013079;28;20026;-55
2022/07/21 12:13:06;;;;;;;17.30;3.55;;;11.10;99.90;;;;;;5012230;28;20491;-57
2022/07/21 12:15:39;;;;;;;15.68;3.35;;;11.30;99.90;;;;;;5018889;28;20029;-56
2022/07/21 12:18:08;;;;;;;8.73;1.95;;;11.40;99.90;;;;;;5011804;28;20124;-56
2022/07/21 12:20:41;;;;;;;14.18;2.55;;;11.40;99.90;;;;;;5022772;28;20041;-58
2022/07/21 12:23:24;;;;;;;13.77;3.03;;;11.40;99.90;;;;;;5013481;28;20018;-57
2022/07/21 12:25:53;;;;;;;16.10;2.22;;;11.40;99.90;;;;;;5000885;28;20574;-58
2022/07/21 12:28:20;;;;;;;13.48;2.70;;;11.40;99.90;;;;;;5010624;28;20547;-58
2022/07/21 12:30:49;;;;;;;11.52;1.95;;;11.40;99.90;;;;;;5009653;28;20057;-56
2022/07/21 12:33:20;;;;;;;11.93;2.65;;;11.30;99.90;;;;;;5013165;28;20029;-56
2022/07/21 12:36:06;;;;;;;5.75;1.50;;;11.40;99.90;;;;;;5016954;28;20386;-58
2022/07/21 12:38:44;;;;;;;8.27;1.77;;;11.40;99.90;;;;;;5008904;28;20044;-57
2022/07/21 12:41:14;;;;;;;10.30;1.30;;;11.50;99.90;;;;;;5011418;28;20073;-55
2022/07/21 12:43:42;;;;;;;7.90;1.80;;;11.60;99.90;;;;;;5021793;28;20026;-57
2022/07/21 12:46:11;;;;;;;10.25;1.15;;;11.70;99.90;;;;;;5009885;28;20107;-57
2022/07/21 12:48:40;;;;;;;11.10;1.15;;;11.70;99.90;;;;;;5009709;28;20375;-56
2022/07/21 12:51:20;;;;;;;5.85;1.08;;;11.70;99.90;;;;;;5009095;28;20053;-57
2022/07/21 12:53:55;;;;;;;27.75;3.83;;;11.70;99.90;;;;;;5009964;28;20030;-55
2022/07/21 12:56:25;;;;;;;8.32;2.15;;;11.60;99.90;;;;;;5017543;28;20021;-55